Stevenson, Alabama
Current Conditions -  °F | °C
As of 10:35 PM on Saturday 25 Oct 2014 (Local Time) from K4A6 Reporting Station
Few Clouds Few Clouds  
Wind Chill: 59°   Ceiling: Unl
Heat Index: 59°   Visibility: 8mi
Dew Point: 57°   Wind: 0mph
Humidity: 94%   Direction: NA
Pressure: 30.06"   Gusts: NA
Location:  34.87°N, 85.84°W
Report Text: K4A6 260335Z AUTO 00000KT 8SM FEW045 15/14 A3006 RMK AO2
Loading
Personal Weather Stations






























Interactive Weather Map
Tropical Storm Tracking
New forecast layout! Learn more

10-Day Weather Forecast

Advertisements
Track Severe Weather on mobile